Friday, October 31, 2014
04:57 UTC
  |  Log In   |  Register Free
Airport Search:

Lewis University Airport
(KLOT)

Lewis University Airport Diagram
No Airport Diagram Available

FAA data valid effective September 18, 2014 - November 13, 2014 (unless otherwise noted).

 
 
 
 
 
 
 
 
 
 
 
 
 
 

Current Aviation Weather for Lewis University Airport (KLOT)

The most recent METAR observation for KLOT was updated at: 0416
METAR Summary (Translated METAR)
KLOT
310355Z AUTO 28004KT 10SM BKN120 07/03 A3006 RMK AO2 T00650026
KJOT
310355Z AUTO 27004KT 10SM SCT120 07/02 A3006 RMK AO2 T00690024
(6.4 nm SW from KLOT)
KC09
310355Z AUTO 28004KT 10SM OVC110 07/04 A3006 RMK AO2 T00650040
(18.2 nm SW from KLOT)
TAF
No TAF information found within 50 nm of KLOT
  Airport Weather Conditions for KLOT

 Current Weather at LOT
44° F
Partly Cloudy
West winds at 4.6 mph
LOT NOAA Radar

Pressure: 30.06 in
Humidity: 76%
Wind: West at 4.6 MPH (4 KT)
Dew Point: 36.5°F
Visibility: 10.00 mi


Airport Weather Forecast for KLOT

Translated METAR and TAF for KLOT
Translated METAR for KLOT (0452 UTC 31 October 2014)
found at http://aviationweather.gov/adds/metars/
 
METAR text: KLOT 310435Z AUTO 28004KT 10SM OVC120 06/02 A3005 RMK AO2 T00620024
Conditions at: KLOT (ROMEOVILLE/CHI , IL, US) observed 0435 UTC 31 October 2014
Temperature: 6.2°C (43°F)
Dewpoint: 2.4°C (36°F) [RH = 77%]
Pressure (altimeter): 30.05 inches Hg (1017.7 mb)
Winds: from the W (280 degrees) at 5 MPH (4 knots; 2.1 m/s)
Visibility: 10 or more miles (16+ km)
Ceiling: 12000 feet AGL
Clouds: overcast cloud deck at 12000 feet AGL
Weather: automated observation with no human augmentation;
there may or may not be significant weather present at this time
Translated TAF for KLOT

There is no translated TAF available for this airport

Find All Airport Services Find A Hotel Find A Rental Car Find A Golf Course Find A Restaurant $100 Hamburger



FBO's on the Field
FBO Company Facility Photos Services Transportation Aviation Fuel Prices: Prices include tax
Catering Weather Repair Courtesy Rental Type 100LL JetA JetA+ MOGAS 8087
 
Lewis University Airport

This FBO has not yet been rated
FS:Phillips 66
Last Updated: Oct-10
Login to update fuel prices
SS:
Contact Lewis University AirportMore FBO Information
 
Add another FBO Facility Photos Catering Weather Repair Courtesy Rental Type 100LL JetA JetA+ MOGAS 8087
Services Transportation Aviation Fuel Prices: Prices include tax


model-print
model-print
model-print
model-print